createdAt,value
2022-10-05T00:01:53.781Z,85.46
2022-10-05T00:04:26.344Z,85.78
2022-10-05T00:07:06.536Z,85.41
2022-10-05T00:09:37.256Z,85.87
2022-10-05T00:12:17.603Z,85.18
2022-10-05T00:14:47.423Z,84.94
2022-10-05T00:17:24.305Z,84.95
2022-10-05T00:19:55.101Z,85.85
2022-10-05T00:22:31.938Z,85.56
2022-10-05T00:25:26.204Z,85.18
2022-10-05T00:28:01.426Z,85.10
2022-10-05T00:30:35.465Z,84.44
2022-10-05T00:33:06.462Z,84.16
2022-10-05T00:35:48.036Z,84.43
2022-10-05T00:38:20.629Z,84.14
2022-10-05T00:40:54.931Z,83.86
2022-10-05T00:44:44.448Z,83.49
2022-10-05T00:47:46.961Z,83.12
2022-10-05T00:51:02.177Z,83.51
2022-10-05T00:54:18.513Z,83.44
2022-10-05T00:57:40.140Z,83.34
2022-10-05T01:00:13.548Z,82.84
2022-10-05T01:03:04.806Z,82.91
2022-10-05T01:06:01.688Z,82.53
2022-10-05T01:08:51.236Z,82.71
2022-10-05T01:11:30.891Z,82.54
2022-10-05T01:14:20.054Z,82.65
2022-10-05T01:17:13.828Z,84.01
2022-10-05T01:20:42.022Z,84.85
2022-10-05T01:23:41.715Z,85.33
2022-10-05T01:26:37.106Z,84.37
2022-10-05T01:29:32.451Z,84.15
2022-10-05T01:32:30.271Z,83.83
2022-10-05T01:35:55.740Z,83.67
2022-10-05T01:38:37.845Z,83.68
2022-10-05T01:41:31.791Z,83.83
2022-10-05T01:44:15.783Z,83.48
2022-10-05T01:47:04.894Z,83.23
2022-10-05T01:50:03.840Z,83.55
2022-10-05T01:53:10.991Z,83.37
2022-10-05T01:56:25.576Z,83.72
2022-10-05T01:59:06.947Z,83.39
2022-10-05T02:01:55.187Z,82.95
2022-10-05T02:07:44.511Z,83.45
2022-10-05T02:10:25.957Z,83.48
2022-10-05T02:13:04.502Z,83.56
2022-10-05T02:15:42.245Z,83.57
2022-10-05T02:18:28.309Z,84.18
2022-10-05T02:21:02.207Z,83.75
2022-10-05T02:23:34.511Z,84.11
2022-10-05T02:26:01.991Z,84.62
2022-10-05T02:28:39.855Z,85.05
2022-10-05T02:31:38.048Z,85.30
2022-10-05T02:34:23.624Z,85.68
2022-10-05T02:37:36.081Z,85.07
2022-10-05T02:40:45.311Z,84.90
2022-10-05T02:43:23.830Z,84.58
2022-10-05T02:46:36.752Z,84.40
2022-10-05T02:49:58.475Z,83.53
2022-10-05T02:52:59.456Z,84.03
2022-10-05T02:56:14.527Z,83.92
2022-10-05T02:58:57.747Z,84.27
2022-10-05T03:01:55.342Z,84.38
2022-10-05T03:04:54.017Z,83.99
2022-10-05T03:08:18.828Z,84.09
2022-10-05T03:11:19.235Z,84.15
2022-10-05T03:14:09.506Z,84.63
2022-10-05T03:17:12.422Z,84.69
2022-10-05T03:20:00.455Z,84.80
2022-10-05T03:22:46.276Z,85.22
2022-10-05T03:25:28.567Z,84.99
2022-10-05T03:28:35.241Z,85.22
2022-10-05T03:31:39.519Z,84.51
2022-10-05T03:34:31.512Z,84.20
2022-10-05T03:37:29.857Z,83.98
2022-10-05T03:41:03.633Z,83.35
2022-10-05T03:43:49.712Z,83.50
2022-10-05T03:46:25.913Z,83.43
2022-10-05T03:49:31.812Z,83.75
2022-10-05T03:52:22.219Z,84.57
2022-10-05T03:55:15.035Z,84.53
2022-10-05T03:57:46.622Z,84.81
2022-10-05T04:00:23.079Z,84.82
2022-10-05T04:02:57.158Z,85.62
2022-10-05T04:05:52.641Z,85.71
2022-10-05T04:08:48.509Z,85.71
2022-10-05T04:11:36.966Z,85.52
2022-10-05T04:14:16.603Z,85.73
2022-10-05T04:16:57.836Z,85.07
2022-10-05T04:20:02.012Z,85.24
2022-10-05T04:22:42.733Z,85.26
2022-10-05T04:25:22.807Z,85.28
2022-10-05T04:28:11.993Z,85.80
2022-10-05T04:30:45.717Z,85.40
2022-10-05T04:33:15.134Z,84.86
2022-10-05T04:36:14.439Z,84.61
2022-10-05T04:38:44.751Z,84.23
2022-10-05T04:42:05.095Z,84.21
2022-10-05T04:44:45.944Z,84.38
2022-10-05T04:47:39.829Z,83.90
2022-10-05T04:50:31.143Z,83.78
2022-10-05T04:53:24.846Z,84.09
2022-10-05T04:56:00.397Z,83.77
2022-10-05T04:59:31.733Z,83.85
2022-10-05T05:02:20.945Z,83.41
2022-10-05T05:05:18.264Z,83.53
2022-10-05T05:08:15.706Z,83.55
2022-10-05T05:11:24.660Z,83.22
2022-10-05T05:14:48.853Z,84.38
2022-10-05T05:17:31.325Z,84.04
2022-10-05T05:20:42.011Z,83.85
2022-10-05T05:23:32.624Z,84.60
2022-10-05T05:26:38.775Z,85.23
2022-10-05T05:29:41.584Z,85.92
2022-10-05T05:33:01.766Z,86.06
2022-10-05T05:36:04.520Z,86.27
2022-10-05T05:38:41.887Z,85.62
2022-10-05T05:41:34.516Z,85.14
2022-10-05T05:44:25.002Z,85.15
2022-10-05T05:47:05.480Z,84.43
2022-10-05T05:50:16.779Z,84.23
2022-10-05T05:53:01.833Z,83.31
2022-10-05T05:55:42.894Z,83.62
2022-10-05T05:58:29.521Z,83.26
2022-10-05T06:01:25.126Z,84.17
2022-10-05T06:04:24.870Z,84.16
2022-10-05T06:06:56.343Z,84.82
2022-10-05T06:09:27.772Z,84.88
2022-10-05T06:12:04.309Z,85.39
2022-10-05T06:14:50.357Z,86.02
2022-10-05T06:18:00.350Z,86.50
2022-10-05T06:20:51.129Z,87.11
2022-10-05T06:23:49.644Z,86.12
2022-10-05T06:27:06.805Z,86.94
2022-10-05T06:29:53.347Z,86.18
2022-10-05T06:32:55.022Z,85.34
2022-10-05T06:35:54.023Z,85.44
2022-10-05T06:39:23.437Z,84.83
2022-10-05T06:42:06.247Z,83.73
2022-10-05T06:45:00.412Z,83.04
2022-10-05T06:48:00.478Z,82.59
2022-10-05T06:50:42.948Z,82.78
2022-10-05T06:53:53.068Z,82.40
2022-10-05T06:56:47.402Z,82.52
2022-10-05T06:59:32.386Z,83.36
2022-10-05T07:02:29.867Z,82.93
2022-10-05T07:05:30.288Z,82.66
2022-10-05T07:08:04.213Z,83.12
2022-10-05T07:10:54.871Z,82.83
2022-10-05T07:13:53.799Z,83.17
2022-10-05T07:16:43.762Z,82.88
2022-10-05T07:19:36.970Z,82.70
2022-10-05T07:22:39.201Z,82.47
2022-10-05T07:25:48.169Z,81.75
2022-10-05T07:28:37.540Z,80.88
2022-10-05T07:31:38.928Z,80.97
2022-10-05T07:34:30.217Z,80.73
2022-10-05T07:37:37.817Z,80.81
2022-10-05T07:40:40.199Z,80.56
2022-10-05T07:43:57.647Z,79.98
2022-10-05T07:46:54.209Z,78.44
2022-10-05T07:49:59.680Z,78.54
2022-10-05T07:52:46.012Z,78.46
2022-10-05T07:55:29.961Z,78.67
2022-10-05T07:58:30.118Z,78.95
2022-10-05T08:01:08.657Z,78.89
2022-10-05T08:04:41.409Z,78.86
2022-10-05T08:07:18.787Z,78.50
2022-10-05T08:10:18.221Z,77.81
2022-10-05T08:13:24.063Z,78.03
2022-10-05T08:15:59.911Z,77.44
2022-10-05T08:19:08.829Z,77.40
2022-10-05T08:22:04.685Z,76.49
2022-10-05T08:24:51.698Z,76.04
2022-10-05T08:28:08.710Z,76.03
2022-10-05T08:30:57.406Z,75.48
2022-10-05T08:33:59.596Z,75.35
2022-10-05T08:37:06.459Z,75.37
2022-10-05T08:39:55.732Z,75.59
2022-10-05T08:43:02.924Z,74.55
2022-10-05T08:46:03.934Z,73.48
2022-10-05T08:49:08.798Z,72.90
2022-10-05T08:52:26.136Z,71.65
2022-10-05T08:56:06.073Z,71.72
2022-10-05T08:59:19.847Z,71.83
2022-10-05T09:02:51.916Z,71.32
2022-10-05T09:05:44.866Z,71.78
2022-10-05T09:09:05.330Z,72.60
2022-10-05T09:12:05.420Z,72.10
2022-10-05T09:15:27.479Z,72.27
2022-10-05T09:18:24.937Z,70.82
2022-10-05T09:22:06.136Z,71.16
2022-10-05T09:24:57.994Z,70.61
2022-10-05T09:28:07.106Z,70.29
2022-10-05T09:31:38.388Z,71.78
2022-10-05T09:34:57.773Z,70.84
2022-10-05T09:38:09.099Z,69.84
2022-10-05T09:41:08.374Z,69.98
2022-10-05T09:44:24.180Z,69.49
2022-10-05T09:47:38.694Z,69.81
2022-10-05T09:50:27.283Z,69.41
2022-10-05T09:54:18.063Z,69.54
2022-10-05T09:57:19.443Z,69.33
2022-10-05T10:01:09.574Z,69.32
2022-10-05T10:04:27.191Z,69.85
2022-10-05T10:07:51.230Z,68.09
2022-10-05T10:10:56.782Z,67.49
2022-10-05T10:14:00.020Z,67.83
2022-10-05T10:16:41.916Z,67.13
2022-10-05T10:20:14.280Z,67.08
2022-10-05T10:23:19.009Z,66.38
2022-10-05T10:26:37.203Z,68.70
2022-10-05T10:29:43.585Z,65.51
2022-10-05T10:33:15.857Z,66.37
2022-10-05T10:36:18.162Z,66.95
2022-10-05T10:39:32.349Z,65.96
2022-10-05T10:42:26.464Z,65.66
2022-10-05T10:45:19.121Z,66.58
2022-10-05T10:48:12.089Z,64.99
2022-10-05T10:51:00.556Z,65.05
2022-10-05T10:54:24.394Z,65.98
2022-10-05T10:57:18.720Z,64.46
2022-10-05T11:00:28.625Z,64.98
2022-10-05T11:03:41.208Z,65.11
2022-10-05T11:06:38.667Z,65.32
2022-10-05T11:10:09.229Z,65.84
2022-10-05T11:12:45.506Z,64.51
2022-10-05T11:20:03.592Z,64.81
2022-10-05T11:24:02.007Z,65.22
2022-10-05T11:26:56.577Z,63.37
2022-10-05T11:30:18.542Z,65.06
2022-10-05T11:33:37.161Z,66.85
2022-10-05T11:36:40.608Z,64.76
2022-10-05T11:39:53.153Z,64.00
2022-10-05T11:43:12.063Z,63.00
2022-10-05T11:46:16.121Z,64.99
2022-10-05T11:49:47.046Z,65.37
2022-10-05T11:56:31.848Z,65.39
2022-10-05T11:59:34.564Z,64.18
2022-10-05T12:02:53.649Z,63.50
2022-10-05T12:06:11.557Z,63.33
2022-10-05T12:09:03.909Z,62.92
2022-10-05T12:12:14.493Z,62.22
2022-10-05T12:14:55.169Z,64.13
2022-10-05T12:18:01.003Z,62.25
2022-10-05T12:20:47.099Z,62.87
2022-10-05T12:23:46.739Z,62.73
2022-10-05T12:26:40.923Z,62.79
2022-10-05T12:30:07.630Z,61.31
2022-10-05T12:33:07.754Z,60.68
2022-10-05T12:36:05.896Z,58.97
2022-10-05T12:39:08.205Z,59.52
2022-10-05T12:42:25.990Z,61.07
2022-10-05T12:45:16.932Z,59.18
2022-10-05T12:48:21.273Z,61.68
2022-10-05T12:51:07.839Z,61.13
2022-10-05T12:53:55.571Z,59.31
2022-10-05T12:56:45.411Z,60.72
2022-10-05T12:59:59.201Z,60.21
2022-10-05T13:02:46.565Z,61.14
2022-10-05T13:05:29.888Z,59.92
2022-10-05T13:09:11.487Z,60.85
2022-10-05T13:12:01.174Z,61.85
2022-10-05T13:14:58.304Z,59.74
2022-10-05T13:19:29.658Z,58.41
2022-10-05T13:21:14.912Z,60.39
2022-10-05T13:24:33.179Z,58.75
2022-10-05T13:27:45.070Z,57.51
2022-10-05T13:30:25.151Z,58.49
2022-10-05T13:33:58.398Z,58.60
2022-10-05T13:37:10.202Z,58.15
2022-10-05T13:40:15.906Z,56.31
2022-10-05T13:43:46.626Z,56.06
2022-10-05T13:46:59.601Z,56.84
2022-10-05T13:50:11.334Z,54.07
2022-10-05T13:52:58.490Z,55.09
2022-10-05T13:56:06.707Z,54.96
2022-10-05T13:58:50.105Z,55.20
2022-10-05T14:01:34.848Z,54.35
2022-10-05T14:04:27.232Z,54.51
2022-10-05T14:06:58.783Z,55.07
2022-10-05T14:12:23.602Z,52.74
2022-10-05T14:14:58.663Z,55.88
2022-10-05T14:17:39.858Z,53.13
2022-10-05T14:20:41.559Z,54.98
2022-10-05T14:23:24.698Z,54.33
2022-10-05T14:26:06.175Z,53.45
2022-10-05T14:28:38.510Z,54.16
2022-10-05T14:31:55.138Z,55.98
2022-10-05T14:34:39.675Z,56.01
2022-10-05T14:37:25.234Z,55.62
2022-10-05T14:40:36.256Z,58.19
2022-10-05T14:43:16.810Z,56.48
2022-10-05T14:49:36.058Z,59.36
2022-10-05T14:52:28.694Z,57.56
2022-10-05T14:55:24.595Z,58.07
2022-10-05T14:59:28.429Z,57.81
2022-10-05T15:01:58.594Z,57.92
2022-10-05T15:05:46.943Z,57.33
2022-10-05T15:08:31.677Z,58.01
2022-10-05T15:11:09.243Z,58.56
2022-10-05T15:13:48.663Z,58.16
2022-10-05T15:16:44.440Z,57.37
2022-10-05T15:19:43.898Z,57.92
2022-10-05T15:22:51.673Z,58.91
2022-10-05T15:25:55.676Z,60.08
2022-10-05T15:29:39.835Z,58.40
2022-10-05T15:32:52.602Z,59.10
2022-10-05T15:36:09.601Z,60.12
2022-10-05T15:39:09.771Z,60.54
2022-10-05T15:41:58.871Z,60.54
2022-10-05T15:44:50.460Z,60.11
2022-10-05T15:47:45.717Z,61.48
2022-10-05T15:50:37.717Z,59.12
2022-10-05T15:53:46.378Z,60.32
2022-10-05T15:56:44.488Z,59.94
2022-10-05T15:59:36.613Z,59.02
2022-10-05T16:02:23.885Z,60.02
2022-10-05T16:05:37.666Z,60.10
2022-10-05T16:08:34.954Z,60.75
2022-10-05T16:11:21.140Z,59.74
2022-10-05T16:14:24.226Z,59.78
2022-10-05T16:17:37.555Z,60.55
2022-10-05T16:20:29.226Z,61.06
2022-10-05T16:23:47.389Z,61.25
2022-10-05T16:26:33.962Z,62.09
2022-10-05T16:29:54.230Z,62.07
2022-10-05T16:32:34.987Z,62.03
2022-10-05T16:35:56.891Z,63.08
2022-10-05T16:39:49.817Z,63.60
2022-10-05T16:42:47.265Z,65.14
2022-10-05T16:45:44.400Z,65.09
2022-10-05T16:48:39.046Z,65.67
2022-10-05T16:51:51.194Z,66.41
2022-10-05T17:00:16.100Z,66.91
2022-10-05T17:03:09.995Z,66.88
2022-10-05T17:06:26.025Z,67.84
2022-10-05T17:09:28.865Z,68.59
2022-10-05T17:16:45.987Z,70.50
2022-10-05T17:19:21.379Z,70.81
2022-10-05T17:22:04.701Z,70.68
2022-10-05T17:24:59.596Z,71.12
2022-10-05T17:29:05.013Z,71.26
2022-10-05T17:32:33.852Z,71.70
2022-10-05T17:35:00.667Z,72.62
2022-10-05T17:37:27.332Z,72.45
2022-10-05T17:40:28.333Z,73.34
2022-10-05T17:43:33.940Z,73.18
2022-10-05T17:46:30.322Z,73.02
2022-10-05T17:49:02.159Z,73.21
2022-10-05T17:51:58.070Z,73.33
2022-10-05T17:55:15.730Z,74.13
2022-10-05T17:58:23.984Z,74.57
2022-10-05T18:01:26.459Z,74.90
2022-10-05T18:03:56.418Z,74.98
2022-10-05T18:06:26.390Z,75.22
2022-10-05T18:14:00.056Z,76.05
2022-10-05T18:17:16.227Z,76.39
2022-10-05T18:20:31.939Z,76.53
2022-10-05T18:23:03.291Z,76.61
2022-10-05T18:26:05.174Z,76.80
2022-10-05T18:28:31.993Z,77.13
2022-10-05T18:31:17.587Z,76.92
2022-10-05T18:34:11.826Z,77.43
2022-10-05T18:37:07.326Z,77.67
2022-10-05T18:40:23.434Z,78.14
2022-10-05T18:43:35.687Z,78.18
2022-10-05T18:46:35.468Z,78.78
2022-10-05T18:49:20.869Z,78.47
2022-10-05T18:52:05.420Z,79.23
2022-10-05T18:55:15.427Z,79.18
2022-10-05T18:58:22.136Z,79.17
2022-10-05T19:01:10.218Z,79.79
2022-10-05T19:03:49.557Z,79.86
2022-10-05T19:06:30.556Z,80.18
2022-10-05T19:09:19.405Z,80.09
2022-10-05T19:12:11.393Z,80.28
2022-10-05T19:15:06.954Z,80.07
2022-10-05T19:18:18.593Z,80.45
2022-10-05T19:21:12.961Z,80.81
2022-10-05T19:24:06.254Z,80.94
2022-10-05T19:26:56.405Z,80.92
2022-10-05T19:29:45.544Z,81.20
2022-10-05T19:32:37.079Z,81.35
2022-10-05T19:35:28.065Z,81.13
2022-10-05T19:38:54.436Z,81.70
2022-10-05T19:41:31.176Z,81.44
2022-10-05T19:44:24.564Z,81.82
2022-10-05T19:47:12.319Z,81.84
2022-10-05T19:50:18.353Z,82.02
2022-10-05T19:52:49.827Z,82.01
2022-10-05T19:55:45.633Z,82.50
2022-10-05T19:58:39.846Z,82.40
2022-10-05T20:01:33.115Z,82.58
2022-10-05T20:04:16.677Z,82.61
2022-10-05T20:06:55.485Z,82.64
2022-10-05T20:09:28.764Z,82.72
2022-10-05T20:11:57.800Z,82.91
2022-10-05T20:14:33.119Z,82.93
2022-10-05T20:17:45.790Z,83.14
2022-10-05T20:20:44.540Z,83.20
2022-10-05T20:23:25.636Z,83.35
2022-10-05T20:26:21.481Z,83.65
2022-10-05T20:28:48.634Z,83.81
2022-10-05T20:31:23.413Z,84.02
2022-10-05T20:34:25.491Z,84.04
2022-10-05T20:36:52.305Z,84.45
2022-10-05T20:39:22.740Z,84.29
2022-10-05T20:41:55.303Z,84.55
2022-10-05T20:44:30.642Z,84.07
2022-10-05T20:47:05.568Z,84.16
2022-10-05T20:49:45.952Z,84.31
2022-10-05T20:52:29.808Z,84.50
2022-10-05T20:55:17.629Z,84.58
2022-10-05T20:57:48.804Z,84.64
2022-10-05T21:00:15.878Z,84.82
2022-10-05T21:02:54.020Z,84.88
2022-10-05T21:05:23.288Z,85.12
2022-10-05T21:07:52.626Z,85.13
2022-10-05T21:10:28.504Z,85.16
2022-10-05T21:13:02.890Z,85.19
2022-10-05T21:15:29.792Z,85.21
2022-10-05T21:17:56.677Z,85.36
2022-10-05T21:20:29.552Z,85.61
2022-10-05T21:23:05.074Z,85.72
2022-10-05T21:25:56.342Z,85.97
2022-10-05T21:28:29.778Z,86.09
2022-10-05T21:30:59.072Z,86.10
2022-10-05T21:33:26.574Z,86.44
2022-10-05T21:35:53.675Z,86.29
2022-10-05T21:38:41.393Z,86.44
2022-10-05T21:41:27.173Z,86.41
2022-10-05T21:44:30.785Z,86.43
2022-10-05T21:47:19.965Z,86.59
2022-10-05T21:50:09.865Z,86.88
2022-10-05T21:52:37.662Z,87.12
2022-10-05T21:55:23.713Z,87.04
2022-10-05T21:58:10.379Z,87.02
2022-10-05T22:00:43.278Z,87.14
2022-10-05T22:06:01.523Z,87.28
2022-10-05T22:08:35.808Z,87.44
2022-10-05T22:11:21.499Z,87.15
2022-10-05T22:13:56.432Z,87.46
2022-10-05T22:20:45.089Z,87.11
2022-10-05T22:23:14.599Z,87.19
2022-10-05T22:25:46.688Z,87.29
2022-10-05T22:28:19.082Z,87.09
2022-10-05T22:31:14.920Z,86.71
2022-10-05T22:33:53.837Z,86.35
2022-10-05T22:36:22.798Z,86.23
2022-10-05T22:39:00.595Z,86.61
2022-10-05T22:41:33.222Z,86.27
2022-10-05T22:44:10.734Z,86.27
2022-10-05T22:46:37.505Z,86.10
2022-10-05T22:49:04.197Z,86.17
2022-10-05T22:51:39.000Z,85.76
2022-10-05T22:54:29.323Z,85.49
2022-10-05T22:57:17.380Z,85.71
2022-10-05T23:00:04.291Z,85.50
2022-10-05T23:02:43.928Z,85.23
2022-10-05T23:05:17.309Z,85.22
2022-10-05T23:07:53.679Z,85.03
2022-10-05T23:10:29.856Z,84.89
2022-10-05T23:13:01.276Z,85.25
2022-10-05T23:15:28.222Z,85.09
2022-10-05T23:17:58.875Z,84.59
2022-10-05T23:20:27.896Z,84.62
2022-10-05T23:23:01.041Z,84.46
2022-10-05T23:25:30.179Z,84.52
2022-10-05T23:27:56.932Z,84.29
2022-10-05T23:34:40.911Z,84.35
2022-10-05T23:37:11.427Z,83.85
2022-10-05T23:39:38.134Z,83.98
2022-10-05T23:42:21.795Z,83.72
2022-10-05T23:45:00.166Z,83.70
2022-10-05T23:47:29.850Z,83.48
2022-10-05T23:50:03.050Z,83.47
2022-10-05T23:52:30.093Z,83.35
2022-10-05T23:55:11.877Z,83.48
2022-10-05T23:57:40.920Z,83.14
